createdAt,value
2019-05-22T00:00:43.011Z,99.90
2019-05-22T00:03:13.988Z,99.90
2019-05-22T00:05:44.164Z,99.90
2019-05-22T00:08:13.025Z,99.90
2019-05-22T00:10:43.689Z,99.90
2019-05-22T00:13:18.808Z,99.90
2019-05-22T00:15:49.890Z,99.90
2019-05-22T00:18:19.680Z,99.90
2019-05-22T00:20:49.354Z,99.90
2019-05-22T00:23:18.855Z,99.90
2019-05-22T00:25:48.622Z,99.90
2019-05-22T00:28:18.191Z,99.90
2019-05-22T00:30:49.232Z,99.90
2019-05-22T00:33:18.356Z,99.90
2019-05-22T00:35:47.759Z,99.90
2019-05-22T00:38:18.224Z,99.90
2019-05-22T00:40:51.714Z,99.90
2019-05-22T00:43:22.168Z,99.90
2019-05-22T00:45:52.532Z,99.90
2019-05-22T00:48:23.983Z,99.90
2019-05-22T00:50:57.422Z,99.90
2019-05-22T00:53:39.472Z,99.90
2019-05-22T00:56:14.001Z,99.90
2019-05-22T00:58:44.739Z,99.90
2019-05-22T01:01:33.308Z,99.90
2019-05-22T01:04:04.547Z,99.90
2019-05-22T01:06:35.672Z,99.90
2019-05-22T01:09:09.128Z,99.90
2019-05-22T01:11:39.805Z,99.90
2019-05-22T01:14:09.671Z,99.90
2019-05-22T01:16:40.011Z,99.90
2019-05-22T01:19:10.983Z,99.90
2019-05-22T01:21:40.428Z,99.90
2019-05-22T01:24:11.031Z,99.90
2019-05-22T01:26:41.877Z,99.90
2019-05-22T01:29:11.657Z,99.90
2019-05-22T01:31:42.254Z,99.90
2019-05-22T01:34:12.928Z,99.90
2019-05-22T01:36:49.986Z,99.90
2019-05-22T01:39:39.817Z,99.90
2019-05-22T01:42:12.591Z,99.90
2019-05-22T01:44:41.894Z,99.90
2019-05-22T01:47:13.673Z,99.90
2019-05-22T01:49:47.128Z,99.90
2019-05-22T01:52:17.583Z,99.90
2019-05-22T01:54:46.988Z,99.90
2019-05-22T01:57:16.172Z,99.90
2019-05-22T01:59:45.325Z,99.90
2019-05-22T02:02:14.600Z,99.90
2019-05-22T02:04:53.204Z,99.90
2019-05-22T02:07:22.257Z,99.90
2019-05-22T02:09:52.422Z,99.90
2019-05-22T02:12:40.744Z,99.90
2019-05-22T02:15:11.958Z,99.90
2019-05-22T02:17:41.923Z,99.90
2019-05-22T02:20:11.444Z,99.90
2019-05-22T02:22:40.994Z,99.90
2019-05-22T02:25:12.130Z,99.90
2019-05-22T02:27:41.930Z,99.90
2019-05-22T02:30:10.997Z,99.90
2019-05-22T02:32:41.203Z,99.90
2019-05-22T02:35:11.386Z,99.90
2019-05-22T02:37:41.864Z,99.90
2019-05-22T02:40:32.988Z,99.90
2019-05-22T02:43:02.361Z,99.90
2019-05-22T02:45:31.731Z,99.90
2019-05-22T02:48:02.585Z,99.90
2019-05-22T02:50:34.543Z,99.90
2019-05-22T02:53:07.844Z,99.90
2019-05-22T02:55:38.413Z,99.90
2019-05-22T02:58:07.877Z,99.90
2019-05-22T03:00:48.671Z,99.90
2019-05-22T03:03:17.711Z,99.90
2019-05-22T03:05:46.976Z,99.90
2019-05-22T03:08:17.038Z,99.90
2019-05-22T03:10:46.727Z,99.90
2019-05-22T03:13:16.407Z,99.90
2019-05-22T03:15:45.617Z,99.90
2019-05-22T03:18:15.195Z,99.90
2019-05-22T03:20:44.659Z,99.90
2019-05-22T03:23:36.725Z,99.90
2019-05-22T03:26:08.243Z,99.90
2019-05-22T03:28:37.608Z,99.90
2019-05-22T03:31:07.540Z,99.90
2019-05-22T03:33:36.896Z,99.90
2019-05-22T03:36:15.251Z,99.90
2019-05-22T03:38:45.416Z,99.90
2019-05-22T03:41:15.579Z,99.90
2019-05-22T03:43:46.534Z,99.90
2019-05-22T03:46:37.354Z,99.90
2019-05-22T03:49:06.345Z,99.90
2019-05-22T03:51:35.227Z,99.90
2019-05-22T03:54:05.606Z,99.90
2019-05-22T03:56:37.698Z,99.90
2019-05-22T03:59:07.474Z,99.90
2019-05-22T04:01:36.726Z,99.90
2019-05-22T04:04:07.670Z,99.90
2019-05-22T04:06:39.395Z,99.90
2019-05-22T04:09:20.625Z,99.90
2019-05-22T04:11:50.070Z,99.90
2019-05-22T04:14:20.698Z,99.90
2019-05-22T04:16:52.148Z,99.90
2019-05-22T04:19:21.565Z,99.90
2019-05-22T04:21:50.633Z,99.90
2019-05-22T04:24:19.880Z,99.90
2019-05-22T04:26:49.152Z,99.90
2019-05-22T04:29:18.709Z,99.90
2019-05-22T04:31:52.309Z,99.90
2019-05-22T04:34:21.904Z,99.90
2019-05-22T04:36:51.038Z,99.90
2019-05-22T04:39:22.374Z,99.90
2019-05-22T04:41:51.543Z,99.90
2019-05-22T04:44:20.391Z,99.90
2019-05-22T04:46:49.902Z,99.90
2019-05-22T04:49:19.767Z,99.90
2019-05-22T04:51:49.135Z,99.90
2019-05-22T04:54:18.045Z,99.90
2019-05-22T04:56:47.534Z,99.90
2019-05-22T04:59:16.541Z,99.90
2019-05-22T05:01:46.364Z,99.90
2019-05-22T05:04:16.243Z,99.90
2019-05-22T05:06:45.617Z,99.90
2019-05-22T05:09:15.100Z,99.90
2019-05-22T05:11:44.649Z,99.90
2019-05-22T05:14:14.011Z,99.90
2019-05-22T05:16:43.857Z,99.90
2019-05-22T05:19:13.121Z,99.90
2019-05-22T05:21:42.077Z,99.90
2019-05-22T05:24:11.107Z,99.90
2019-05-22T05:26:40.865Z,99.90
2019-05-22T05:29:27.523Z,99.90
2019-05-22T05:31:58.170Z,99.90
2019-05-22T05:34:30.467Z,99.90
2019-05-22T05:37:02.179Z,99.90
2019-05-22T05:39:40.343Z,99.90
2019-05-22T05:42:09.294Z,99.90
2019-05-22T05:44:38.464Z,99.90
2019-05-22T05:47:08.224Z,99.90
2019-05-22T05:49:37.840Z,99.90
2019-05-22T05:52:08.410Z,99.90
2019-05-22T05:54:38.034Z,99.90
2019-05-22T05:57:36.574Z,99.90
2019-05-22T06:00:09.205Z,99.90
2019-05-22T06:02:38.271Z,99.90
2019-05-22T06:05:08.511Z,99.90
2019-05-22T06:07:38.289Z,99.90
2019-05-22T06:10:22.461Z,99.90
2019-05-22T06:12:51.313Z,99.90
2019-05-22T06:15:20.779Z,99.90
2019-05-22T06:18:27.505Z,99.90
2019-05-22T06:21:03.693Z,99.90
2019-05-22T06:23:38.899Z,99.90
2019-05-22T06:26:10.088Z,99.90
2019-05-22T06:28:40.506Z,99.90
2019-05-22T06:31:23.165Z,99.90
2019-05-22T06:33:52.763Z,99.90
2019-05-22T06:36:22.626Z,99.90
2019-05-22T06:38:55.436Z,99.90
2019-05-22T06:41:27.442Z,99.90
2019-05-22T06:44:26.865Z,99.90
2019-05-22T06:46:55.749Z,99.90
2019-05-22T06:49:38.577Z,99.90
2019-05-22T06:52:08.566Z,99.90
2019-05-22T06:54:38.721Z,99.90
2019-05-22T06:57:13.990Z,99.90
2019-05-22T06:59:43.712Z,99.90
2019-05-22T07:02:14.088Z,99.90
2019-05-22T07:04:43.882Z,99.90
2019-05-22T07:07:14.344Z,99.90
2019-05-22T07:09:45.112Z,99.90
2019-05-22T07:12:15.757Z,99.30
2019-05-22T07:15:07.163Z,98.40
2019-05-22T07:17:37.791Z,98.10
2019-05-22T07:20:07.657Z,96.60
2019-05-22T07:22:37.212Z,95.30
2019-05-22T07:25:08.730Z,94.60
2019-05-22T07:27:38.610Z,93.50
2019-05-22T07:30:09.257Z,93.10
2019-05-22T07:32:44.644Z,93.20
2019-05-22T07:35:13.702Z,91.40
2019-05-22T07:37:45.325Z,91.50
2019-05-22T07:40:14.867Z,92.10
2019-05-22T07:42:44.115Z,92.50
2019-05-22T07:45:13.575Z,93.50
2019-05-22T07:47:42.708Z,93.80
2019-05-22T07:50:12.956Z,94.00
2019-05-22T07:52:42.917Z,93.70
2019-05-22T07:55:12.428Z,93.30
2019-05-22T07:57:42.549Z,92.80
2019-05-22T08:00:12.106Z,90.70
2019-05-22T08:02:46.869Z,87.70
2019-05-22T08:05:17.747Z,87.10
2019-05-22T08:07:46.975Z,85.20
2019-05-22T08:10:17.792Z,79.30
2019-05-22T08:12:47.456Z,66.10
2019-05-22T08:15:18.088Z,62.80
2019-05-22T08:17:47.278Z,58.20
2019-05-22T08:20:16.446Z,56.80
2019-05-22T08:22:47.719Z,55.30
2019-05-22T08:25:17.567Z,55.30
2019-05-22T08:27:47.599Z,56.90
2019-05-22T08:30:17.065Z,58.30
2019-05-22T08:32:46.096Z,59.90
2019-05-22T08:35:15.240Z,61.50
2019-05-22T08:37:45.327Z,61.20
2019-05-22T08:40:16.394Z,61.10
2019-05-22T08:42:46.246Z,60.90
2019-05-22T08:45:18.111Z,62.20
2019-05-22T08:47:47.044Z,61.60
2019-05-22T08:50:19.260Z,63.40
2019-05-22T08:52:49.869Z,57.70
2019-05-22T08:55:19.252Z,51.30
2019-05-22T08:57:48.575Z,46.80
2019-05-22T09:00:21.105Z,45.00
2019-05-22T09:02:51.153Z,43.80
2019-05-22T09:05:21.503Z,45.70
2019-05-22T09:07:50.710Z,47.60
2019-05-22T09:10:20.685Z,48.00
2019-05-22T09:12:49.541Z,50.20
2019-05-22T09:15:18.449Z,48.00
2019-05-22T09:17:47.585Z,44.30
2019-05-22T09:20:17.260Z,41.10
2019-05-22T09:22:47.200Z,39.70
2019-05-22T09:25:16.722Z,38.70
2019-05-22T09:27:45.780Z,37.60
2019-05-22T09:30:15.426Z,38.20
2019-05-22T09:32:47.432Z,40.70
2019-05-22T09:35:15.784Z,42.30
2019-05-22T09:37:44.688Z,42.80
2019-05-22T09:40:13.753Z,43.40
2019-05-22T09:42:42.928Z,43.80
2019-05-22T09:45:12.205Z,42.30
2019-05-22T09:47:42.161Z,40.30
2019-05-22T09:50:12.437Z,39.90
2019-05-22T09:52:56.820Z,41.50
2019-05-22T09:55:14.999Z,43.10
2019-05-22T09:57:43.980Z,43.00
2019-05-22T10:00:14.762Z,43.70
2019-05-22T10:02:43.816Z,41.40
2019-05-22T10:05:14.621Z,40.90
2019-05-22T10:07:57.664Z,39.60
2019-05-22T10:10:15.236Z,38.00
2019-05-22T10:12:44.326Z,39.20
2019-05-22T10:15:13.963Z,38.90
2019-05-22T10:17:45.759Z,40.30
2019-05-22T10:20:15.216Z,41.00
2019-05-22T10:22:44.313Z,41.70
2019-05-22T10:25:16.607Z,40.20
2019-05-22T10:27:46.598Z,39.30
2019-05-22T10:30:18.575Z,38.80
2019-05-22T10:32:47.629Z,39.40
2019-05-22T10:35:17.296Z,41.20
2019-05-22T10:37:46.346Z,42.00
2019-05-22T10:40:15.914Z,43.40
2019-05-22T10:42:45.445Z,43.60
2019-05-22T10:45:14.807Z,44.10
2019-05-22T10:47:44.144Z,44.10
2019-05-22T10:50:14.112Z,45.20
2019-05-22T10:52:43.020Z,45.40
2019-05-22T10:55:13.210Z,46.20
2019-05-22T10:57:43.993Z,47.60
2019-05-22T11:00:16.144Z,49.10
2019-05-22T11:02:45.107Z,49.70
2019-05-22T11:05:14.050Z,51.20
2019-05-22T11:07:43.662Z,52.30
2019-05-22T11:10:13.930Z,51.70
2019-05-22T11:12:42.793Z,52.20
2019-05-22T11:15:12.201Z,51.50
2019-05-22T11:17:41.464Z,52.10
2019-05-22T11:20:12.444Z,54.00
2019-05-22T11:22:41.731Z,55.50
2019-05-22T11:25:13.259Z,60.90
2019-05-22T11:27:42.127Z,71.20
2019-05-22T11:30:12.718Z,85.80
2019-05-22T11:32:42.192Z,91.60
2019-05-22T11:35:12.561Z,91.40
2019-05-22T11:37:41.986Z,86.90
2019-05-22T11:40:11.859Z,82.20
2019-05-22T11:42:41.620Z,77.00
2019-05-22T11:45:13.371Z,76.70
2019-05-22T11:47:43.152Z,70.70
2019-05-22T11:50:13.483Z,71.30
2019-05-22T11:52:42.834Z,71.60
2019-05-22T11:55:13.585Z,72.40
2019-05-22T11:57:43.980Z,72.70
2019-05-22T12:00:13.882Z,65.90
2019-05-22T12:02:45.331Z,65.20
2019-05-22T12:05:15.482Z,65.20
2019-05-22T12:07:46.410Z,65.50
2019-05-22T12:10:16.188Z,66.70
2019-05-22T12:12:45.551Z,66.70
2019-05-22T12:15:15.261Z,67.10
2019-05-22T12:17:45.141Z,68.00
2019-05-22T12:20:14.817Z,71.20
2019-05-22T12:22:43.989Z,69.20
2019-05-22T12:25:13.777Z,69.30
2019-05-22T12:27:42.752Z,70.00
2019-05-22T12:30:14.161Z,70.30
2019-05-22T12:32:43.720Z,70.10
2019-05-22T12:35:14.582Z,69.80
2019-05-22T12:37:44.029Z,68.20
2019-05-22T12:40:15.829Z,64.00
2019-05-22T12:42:45.307Z,67.20
2019-05-22T12:45:15.934Z,68.10
2019-05-22T12:47:45.643Z,70.20
2019-05-22T12:50:17.286Z,67.60
2019-05-22T12:52:50.902Z,67.00
2019-05-22T12:55:21.064Z,67.20
2019-05-22T12:57:50.932Z,64.30
2019-05-22T13:00:24.306Z,63.80
2019-05-22T13:02:54.363Z,66.40
2019-05-22T13:05:24.029Z,68.70
2019-05-22T13:07:54.549Z,75.70
2019-05-22T13:10:26.171Z,83.10
2019-05-22T13:12:55.534Z,90.70
2019-05-22T13:15:25.382Z,93.50
2019-05-22T13:17:55.842Z,96.00
2019-05-22T13:20:41.797Z,97.40
2019-05-22T13:22:58.857Z,98.10
2019-05-22T13:25:34.146Z,97.00
2019-05-22T13:28:04.330Z,96.60
2019-05-22T13:30:35.716Z,96.10
2019-05-22T13:33:06.090Z,96.10
2019-05-22T13:35:35.157Z,96.30
2019-05-22T13:38:04.833Z,96.10
2019-05-22T13:40:34.789Z,96.10
2019-05-22T13:43:04.591Z,96.50
2019-05-22T13:45:35.789Z,97.30
2019-05-22T13:48:04.778Z,97.70
2019-05-22T13:50:33.781Z,96.10
2019-05-22T13:53:04.855Z,95.40
2019-05-22T13:55:34.014Z,96.00
2019-05-22T13:58:05.930Z,94.20
2019-05-22T14:00:36.866Z,93.30
2019-05-22T14:03:06.324Z,92.10
2019-05-22T14:05:36.647Z,91.80
2019-05-22T14:08:06.546Z,92.00
2019-05-22T14:10:35.359Z,91.90
2019-05-22T14:13:04.985Z,92.70
2019-05-22T14:15:48.753Z,93.40
2019-05-22T14:18:04.446Z,93.90
2019-05-22T14:20:33.605Z,93.10
2019-05-22T14:23:03.032Z,92.10
2019-05-22T14:25:32.242Z,91.40
2019-05-22T14:28:02.173Z,92.70
2019-05-22T14:30:31.392Z,90.40
2019-05-22T14:33:04.436Z,91.40
2019-05-22T14:35:46.983Z,93.10
2019-05-22T14:38:05.518Z,92.70
2019-05-22T14:40:34.985Z,93.20
2019-05-22T14:43:04.489Z,92.70
2019-05-22T14:45:33.833Z,90.10
2019-05-22T14:48:03.222Z,88.40
2019-05-22T14:50:33.303Z,90.60
2019-05-22T14:53:03.091Z,90.70
2019-05-22T14:55:34.871Z,88.70
2019-05-22T14:58:05.653Z,86.90
2019-05-22T15:00:35.416Z,84.20
2019-05-22T15:03:05.183Z,84.40
2019-05-22T15:05:34.211Z,81.70
2019-05-22T15:08:04.070Z,81.10
2019-05-22T15:10:33.230Z,81.70
2019-05-22T15:13:02.741Z,80.80
2019-05-22T15:15:32.409Z,80.90
2019-05-22T15:18:01.276Z,81.90
2019-05-22T15:20:34.300Z,83.80
2019-05-22T15:23:03.366Z,85.60
2019-05-22T15:25:32.311Z,84.30
2019-05-22T15:28:02.215Z,84.80
2019-05-22T15:30:31.079Z,84.50
2019-05-22T15:32:59.940Z,87.00
2019-05-22T15:35:29.380Z,87.70
2019-05-22T15:37:59.616Z,86.90
2019-05-22T15:40:29.676Z,87.60
2019-05-22T15:42:58.927Z,91.30
2019-05-22T15:45:29.386Z,94.40
2019-05-22T15:48:02.822Z,95.80
2019-05-22T15:50:35.235Z,97.50
2019-05-22T15:53:10.228Z,97.50
2019-05-22T15:55:39.272Z,98.10
2019-05-22T15:58:08.963Z,97.30
2019-05-22T16:00:40.714Z,97.20
2019-05-22T16:03:12.654Z,97.70
2019-05-22T16:05:43.673Z,98.70
2019-05-22T16:08:14.991Z,97.80
2019-05-22T16:10:46.740Z,98.60
2019-05-22T16:13:19.456Z,99.00
2019-05-22T16:15:50.526Z,98.30
2019-05-22T16:18:22.370Z,97.70
2019-05-22T16:20:52.272Z,97.70
2019-05-22T16:23:22.363Z,97.30
2019-05-22T16:25:53.021Z,97.10
2019-05-22T16:28:23.863Z,97.30
2019-05-22T16:30:53.738Z,95.90
2019-05-22T16:33:25.045Z,95.80
2019-05-22T16:35:54.563Z,96.10
2019-05-22T16:38:25.630Z,95.30
2019-05-22T16:40:54.679Z,95.20
2019-05-22T16:43:24.181Z,95.10
2019-05-22T16:45:53.658Z,95.40
2019-05-22T16:48:29.040Z,95.40
2019-05-22T16:50:53.893Z,95.30
2019-05-22T16:53:25.060Z,95.40
2019-05-22T16:55:56.399Z,95.10
2019-05-22T16:58:25.641Z,94.90
2019-05-22T17:00:56.968Z,94.50
2019-05-22T17:03:27.731Z,94.90
2019-05-22T17:05:58.067Z,94.60
2019-05-22T17:08:29.095Z,94.50
2019-05-22T17:11:01.750Z,94.60
2019-05-22T17:13:32.274Z,94.70
2019-05-22T17:16:01.925Z,95.40
2019-05-22T17:18:45.997Z,95.40
2019-05-22T17:21:04.567Z,95.50
2019-05-22T17:23:33.560Z,95.70
2019-05-22T17:26:04.707Z,96.10
2019-05-22T17:28:34.533Z,97.10
2019-05-22T17:31:03.400Z,97.20
2019-05-22T17:33:33.760Z,98.30
2019-05-22T17:36:05.792Z,98.70
2019-05-22T17:38:35.199Z,99.60
2019-05-22T17:41:04.817Z,99.90
2019-05-22T17:43:34.346Z,99.90
2019-05-22T17:46:04.244Z,99.90
2019-05-22T17:48:34.273Z,99.90
2019-05-22T17:51:04.103Z,99.90
2019-05-22T17:53:33.659Z,99.90
2019-05-22T17:56:02.844Z,99.90
2019-05-22T17:58:31.882Z,99.90
2019-05-22T18:01:00.741Z,99.90
2019-05-22T18:03:29.911Z,99.90
2019-05-22T18:05:58.962Z,99.90
2019-05-22T18:08:28.593Z,99.90
2019-05-22T18:10:59.056Z,99.90
2019-05-22T18:13:28.640Z,99.90
2019-05-22T18:15:57.806Z,99.90
2019-05-22T18:18:27.118Z,99.90
2019-05-22T18:20:56.998Z,99.90
2019-05-22T18:23:26.067Z,99.90
2019-05-22T18:25:54.923Z,99.90
2019-05-22T18:28:23.951Z,99.90
2019-05-22T18:30:53.110Z,99.90
2019-05-22T18:33:22.068Z,99.90
2019-05-22T18:35:51.283Z,99.90
2019-05-22T18:38:20.270Z,99.90
2019-05-22T18:40:49.329Z,99.90
2019-05-22T18:43:22.907Z,99.90
2019-05-22T18:45:50.395Z,99.90
2019-05-22T18:48:19.253Z,99.90
2019-05-22T18:50:48.196Z,99.90
2019-05-22T18:53:17.046Z,99.90
2019-05-22T18:55:45.914Z,99.90
2019-05-22T18:58:14.831Z,99.90
2019-05-22T19:00:43.913Z,99.90
2019-05-22T19:03:13.209Z,99.90
2019-05-22T19:05:43.589Z,99.90
2019-05-22T19:08:12.539Z,99.90
2019-05-22T19:10:41.387Z,99.90
2019-05-22T19:13:14.246Z,99.90
2019-05-22T19:15:41.322Z,99.90
2019-05-22T19:18:10.507Z,99.90
2019-05-22T19:20:39.387Z,99.90
2019-05-22T19:23:08.752Z,99.90
2019-05-22T19:25:37.722Z,99.90
2019-05-22T19:28:06.604Z,99.90
2019-05-22T19:30:36.390Z,99.90
2019-05-22T19:33:05.338Z,99.90
2019-05-22T19:35:34.275Z,99.90
2019-05-22T19:38:03.136Z,99.90
2019-05-22T19:40:32.899Z,99.90
2019-05-22T19:43:02.285Z,99.90
2019-05-22T19:45:31.393Z,99.90
2019-05-22T19:48:01.122Z,99.90
2019-05-22T19:50:31.517Z,99.90
2019-05-22T19:53:17.531Z,99.90
2019-05-22T19:55:32.576Z,99.90
2019-05-22T19:58:01.787Z,99.90
2019-05-22T20:00:31.863Z,99.90
2019-05-22T20:03:01.130Z,99.90
2019-05-22T20:05:30.626Z,99.90
2019-05-22T20:07:59.999Z,99.90
2019-05-22T20:10:28.949Z,99.90
2019-05-22T20:12:57.889Z,99.90
2019-05-22T20:15:28.155Z,99.90
2019-05-22T20:17:57.509Z,99.90
2019-05-22T20:20:27.535Z,99.90
2019-05-22T20:22:56.809Z,99.90
2019-05-22T20:25:25.854Z,99.90
2019-05-22T20:27:57.261Z,99.90
2019-05-22T20:30:26.935Z,99.90
2019-05-22T20:32:56.585Z,99.90
2019-05-22T20:35:26.602Z,99.90
2019-05-22T20:37:55.473Z,99.90
2019-05-22T20:40:25.257Z,99.90
2019-05-22T20:42:54.694Z,99.90
2019-05-22T20:45:25.630Z,99.90
2019-05-22T20:48:12.520Z,99.90
2019-05-22T20:50:43.409Z,99.90
2019-05-22T20:53:14.429Z,99.90
2019-05-22T20:55:43.962Z,99.90
2019-05-22T20:58:14.517Z,99.90
2019-05-22T21:00:43.809Z,99.90
2019-05-22T21:03:13.971Z,99.90
2019-05-22T21:05:43.723Z,99.90
2019-05-22T21:08:15.548Z,99.90
2019-05-22T21:10:47.283Z,99.90
2019-05-22T21:13:17.585Z,99.90
2019-05-22T21:15:48.245Z,99.90
2019-05-22T21:18:19.621Z,99.90
2019-05-22T21:20:55.140Z,99.90
2019-05-22T21:23:24.118Z,99.90
2019-05-22T21:25:53.068Z,99.90
2019-05-22T21:28:22.736Z,99.90
2019-05-22T21:30:54.327Z,99.90
2019-05-22T21:33:24.267Z,99.90
2019-05-22T21:35:55.133Z,99.90
2019-05-22T21:38:24.865Z,99.90
2019-05-22T21:40:56.308Z,99.90
2019-05-22T21:43:25.367Z,99.90
2019-05-22T21:45:54.246Z,99.90
2019-05-22T21:48:23.916Z,99.90
2019-05-22T21:50:52.759Z,99.90
2019-05-22T21:53:22.083Z,99.90
2019-05-22T21:56:03.676Z,99.90
2019-05-22T21:58:21.554Z,99.90
2019-05-22T22:00:56.988Z,99.90
2019-05-22T22:03:29.552Z,99.90
2019-05-22T22:05:59.490Z,99.90
2019-05-22T22:08:29.697Z,99.90
2019-05-22T22:10:59.274Z,99.90
2019-05-22T22:13:29.938Z,99.90
2019-05-22T22:15:59.260Z,99.90
2019-05-22T22:18:28.329Z,99.90
2019-05-22T22:20:58.503Z,99.90
2019-05-22T22:23:28.025Z,99.90
2019-05-22T22:25:57.266Z,99.90
2019-05-22T22:28:26.642Z,99.90
2019-05-22T22:30:57.907Z,99.90
2019-05-22T22:33:29.720Z,99.90
2019-05-22T22:35:59.173Z,99.90
2019-05-22T22:38:28.992Z,99.90
2019-05-22T22:40:57.843Z,99.90
2019-05-22T22:43:30.461Z,99.90
2019-05-22T22:46:06.797Z,99.90
2019-05-22T22:48:37.163Z,99.90
2019-05-22T22:51:09.710Z,99.90
2019-05-22T22:53:39.053Z,99.90
2019-05-22T22:56:10.581Z,99.90
2019-05-22T22:58:39.729Z,99.90
2019-05-22T23:01:13.270Z,99.90
2019-05-22T23:03:43.538Z,99.90
2019-05-22T23:06:14.967Z,99.90
2019-05-22T23:08:45.470Z,99.90
2019-05-22T23:11:16.233Z,99.90
2019-05-22T23:13:46.167Z,99.90
2019-05-22T23:16:16.065Z,99.90
2019-05-22T23:18:48.261Z,99.90
2019-05-22T23:21:17.471Z,99.90
2019-05-22T23:23:46.270Z,99.90
2019-05-22T23:26:16.432Z,99.90
2019-05-22T23:28:45.491Z,99.90
2019-05-22T23:31:15.903Z,99.90
2019-05-22T23:33:45.269Z,99.90
2019-05-22T23:36:15.787Z,99.90
2019-05-22T23:38:45.479Z,99.90
2019-05-22T23:41:15.534Z,99.90
2019-05-22T23:43:45.160Z,99.90
2019-05-22T23:46:15.018Z,99.90
2019-05-22T23:48:45.063Z,99.90
2019-05-22T23:51:14.030Z,99.90
2019-05-22T23:53:42.953Z,99.90
2019-05-22T23:56:11.806Z,99.90
2019-05-22T23:58:52.337Z,99.90
